createdAt,value
2022-12-22T00:00:32.172Z,8.50
2022-12-22T00:03:31.928Z,8.50
2022-12-22T00:06:22.243Z,8.50
2022-12-22T00:09:12.647Z,8.50
2022-12-22T00:12:04.221Z,8.50
2022-12-22T00:14:54.565Z,8.40
2022-12-22T00:17:46.503Z,8.40
2022-12-22T00:20:38.822Z,8.40
2022-12-22T00:23:29.729Z,8.40
2022-12-22T00:26:20.341Z,8.40
2022-12-22T00:29:10.742Z,8.30
2022-12-22T00:32:02.077Z,8.30
2022-12-22T00:34:58.929Z,8.30
2022-12-22T00:37:52.805Z,8.20
2022-12-22T00:40:47.407Z,8.30
2022-12-22T00:43:38.122Z,8.20
2022-12-22T00:46:30.631Z,8.20
2022-12-22T00:49:21.740Z,8.10
2022-12-22T00:52:12.104Z,8.10
2022-12-22T00:55:02.493Z,8.00
2022-12-22T00:57:52.780Z,8.00
2022-12-22T01:00:43.272Z,8.00
2022-12-22T01:03:33.841Z,8.00
2022-12-22T01:06:27.757Z,7.90
2022-12-22T01:09:18.755Z,7.90
2022-12-22T01:12:09.299Z,7.90
2022-12-22T01:14:59.800Z,7.90
2022-12-22T01:17:50.272Z,7.90
2022-12-22T01:20:40.567Z,7.90
2022-12-22T01:23:31.176Z,7.90
2022-12-22T01:26:21.603Z,7.90
2022-12-22T01:29:12.261Z,7.90
2022-12-22T01:32:02.853Z,8.00
2022-12-22T01:34:54.345Z,8.00
2022-12-22T01:37:44.688Z,8.00
2022-12-22T01:40:41.036Z,8.10
2022-12-22T01:43:46.275Z,8.10
2022-12-22T01:47:00.176Z,8.10
2022-12-22T01:49:55.763Z,8.10
2022-12-22T01:52:51.238Z,8.10
2022-12-22T01:55:43.856Z,8.10
2022-12-22T01:58:45.850Z,8.10
2022-12-22T02:01:36.372Z,8.10
2022-12-22T02:04:26.675Z,8.20
2022-12-22T02:07:44.764Z,8.20
2022-12-22T02:10:47.338Z,8.10
2022-12-22T02:13:54.496Z,8.00
2022-12-22T02:16:52.561Z,8.00
2022-12-22T02:20:08.673Z,8.10
2022-12-22T02:23:12.147Z,8.10
2022-12-22T02:26:12.284Z,8.20
2022-12-22T02:29:03.814Z,8.20
2022-12-22T02:31:56.744Z,8.30
2022-12-22T02:34:47.231Z,8.40
2022-12-22T02:37:46.369Z,8.40
2022-12-22T02:40:58.043Z,8.50
2022-12-22T02:43:58.647Z,8.50
2022-12-22T02:46:57.942Z,8.50
2022-12-22T02:50:02.931Z,8.50
2022-12-22T02:52:55.600Z,8.50
2022-12-22T02:55:47.105Z,8.50
2022-12-22T02:58:38.275Z,8.50
2022-12-22T03:01:29.358Z,8.40
2022-12-22T03:04:19.664Z,8.40
2022-12-22T03:07:10.079Z,8.30
2022-12-22T03:10:00.623Z,8.30
2022-12-22T03:12:51.170Z,8.30
2022-12-22T03:15:41.872Z,8.40
2022-12-22T03:18:32.286Z,8.40
2022-12-22T03:21:22.832Z,8.40
2022-12-22T03:24:13.337Z,8.50
2022-12-22T03:26:45.231Z,8.50
2022-12-22T03:29:17.115Z,8.50
2022-12-22T03:31:48.936Z,8.60
2022-12-22T03:34:20.649Z,8.70
2022-12-22T03:36:52.465Z,8.70
2022-12-22T03:39:24.221Z,8.60
2022-12-22T03:42:31.564Z,8.60
2022-12-22T03:45:22.098Z,8.70
2022-12-22T03:47:53.828Z,8.80
2022-12-22T03:50:25.557Z,8.80
2022-12-22T03:52:57.244Z,8.80
2022-12-22T03:55:28.974Z,8.70
2022-12-22T03:58:00.664Z,8.70
2022-12-22T04:00:32.455Z,8.70
2022-12-22T04:03:04.261Z,8.70
2022-12-22T04:05:36.080Z,8.80
2022-12-22T04:08:07.780Z,8.80
2022-12-22T04:10:58.364Z,8.80
2022-12-22T04:13:30.046Z,8.80
2022-12-22T04:16:01.855Z,8.90
2022-12-22T04:18:33.603Z,8.90
2022-12-22T04:21:05.455Z,8.90
2022-12-22T04:23:37.237Z,8.90
2022-12-22T04:26:09.422Z,8.90
2022-12-22T04:28:41.134Z,8.90
2022-12-22T04:31:13.014Z,8.90
2022-12-22T04:33:45.074Z,9.00
2022-12-22T04:36:17.464Z,9.00
2022-12-22T04:38:49.168Z,9.00
2022-12-22T04:41:20.855Z,9.00
2022-12-22T04:43:52.617Z,9.00
2022-12-22T04:46:24.480Z,9.00
2022-12-22T04:49:00.196Z,9.00
2022-12-22T04:51:32.431Z,9.00
2022-12-22T04:54:04.173Z,9.00
2022-12-22T04:56:35.959Z,8.90
2022-12-22T04:59:07.681Z,8.90
2022-12-22T05:01:39.688Z,8.90
2022-12-22T05:04:11.487Z,8.90
2022-12-22T05:06:43.212Z,8.90
2022-12-22T05:09:14.938Z,9.00
2022-12-22T05:11:46.730Z,9.00
2022-12-22T05:14:18.400Z,8.90
2022-12-22T05:16:50.153Z,9.00
2022-12-22T05:19:24.971Z,8.90
2022-12-22T05:22:00.881Z,8.90
2022-12-22T05:24:32.653Z,9.00
2022-12-22T05:27:04.416Z,9.00
2022-12-22T05:29:36.176Z,9.00
2022-12-22T05:32:08.001Z,9.00
2022-12-22T05:34:39.667Z,8.90
2022-12-22T05:37:11.355Z,8.90
2022-12-22T05:39:43.030Z,8.90
2022-12-22T05:42:14.847Z,8.90
2022-12-22T05:44:46.622Z,8.90
2022-12-22T05:47:18.349Z,8.90
2022-12-22T05:49:50.109Z,8.90
2022-12-22T05:52:21.878Z,8.90
2022-12-22T05:54:53.880Z,8.90
2022-12-22T05:57:25.575Z,8.80
2022-12-22T05:59:57.306Z,8.80
2022-12-22T06:02:30.348Z,8.70
2022-12-22T06:05:02.125Z,8.70
2022-12-22T06:07:34.104Z,8.70
2022-12-22T06:10:11.967Z,8.70
2022-12-22T06:12:44.652Z,8.70
2022-12-22T06:15:16.363Z,8.60
2022-12-22T06:17:48.121Z,8.70
2022-12-22T06:20:19.879Z,8.70
2022-12-22T06:22:51.620Z,8.80
2022-12-22T06:25:23.328Z,8.80
2022-12-22T06:27:55.082Z,8.90
2022-12-22T06:30:32.964Z,8.90
2022-12-22T06:33:05.424Z,8.90
2022-12-22T06:35:37.616Z,9.00
2022-12-22T06:38:09.431Z,9.10
2022-12-22T06:40:41.152Z,9.10
2022-12-22T06:43:13.030Z,9.20
2022-12-22T06:45:45.171Z,9.20
2022-12-22T06:48:17.086Z,9.30
2022-12-22T06:50:49.167Z,9.30
2022-12-22T06:53:20.904Z,9.30
2022-12-22T06:55:52.610Z,9.30
2022-12-22T06:58:24.347Z,9.40
2022-12-22T07:00:56.670Z,9.40
2022-12-22T07:03:28.509Z,9.40
2022-12-22T07:06:00.315Z,9.50
2022-12-22T07:08:32.076Z,9.50
2022-12-22T07:11:03.916Z,9.40
2022-12-22T07:13:36.201Z,9.40
2022-12-22T07:16:09.442Z,9.40
2022-12-22T07:18:43.015Z,9.40
2022-12-22T07:21:14.909Z,9.30
2022-12-22T07:23:46.649Z,9.30
2022-12-22T07:26:18.337Z,9.40
2022-12-22T07:28:50.065Z,9.50
2022-12-22T07:31:27.861Z,9.60
2022-12-22T07:33:59.665Z,9.50
2022-12-22T07:36:31.382Z,9.50
2022-12-22T07:39:03.158Z,9.50
2022-12-22T07:41:54.025Z,9.40
2022-12-22T07:44:25.699Z,9.20
2022-12-22T07:46:57.480Z,9.10
2022-12-22T07:49:47.919Z,9.10
2022-12-22T07:52:19.745Z,8.90
2022-12-22T07:54:51.463Z,8.80
2022-12-22T07:57:23.535Z,8.80
2022-12-22T07:59:55.208Z,8.70
2022-12-22T08:02:27.065Z,8.60
2022-12-22T08:04:59.199Z,8.60
2022-12-22T08:07:32.582Z,8.60
2022-12-22T08:10:04.756Z,8.50
2022-12-22T08:12:36.474Z,8.50
2022-12-22T08:15:09.371Z,8.50
2022-12-22T08:17:41.124Z,8.50
2022-12-22T08:20:12.903Z,8.50
2022-12-22T08:22:44.599Z,8.50
2022-12-22T08:25:16.422Z,8.60
2022-12-22T08:27:52.019Z,8.50
2022-12-22T08:30:23.976Z,8.60
2022-12-22T08:32:55.792Z,8.60
2022-12-22T08:35:27.574Z,8.70
2022-12-22T08:37:59.271Z,8.60
2022-12-22T08:40:32.712Z,8.70
2022-12-22T08:43:07.697Z,8.70
2022-12-22T08:45:40.161Z,8.70
2022-12-22T08:48:12.004Z,8.70
2022-12-22T08:50:43.807Z,8.80
2022-12-22T08:53:37.599Z,8.90
2022-12-22T08:56:08.344Z,9.00
2022-12-22T08:58:40.312Z,9.10
2022-12-22T09:01:19.696Z,9.20
2022-12-22T09:03:53.989Z,9.10
2022-12-22T09:06:27.538Z,9.30
2022-12-22T09:09:02.083Z,9.50
2022-12-22T09:11:34.219Z,9.80
2022-12-22T09:14:07.697Z,10.20
2022-12-22T09:16:40.278Z,10.20
2022-12-22T09:19:12.181Z,9.90
2022-12-22T09:21:45.005Z,9.60
2022-12-22T09:24:17.031Z,9.40
2022-12-22T09:26:49.781Z,9.30
2022-12-22T09:29:21.542Z,9.10
2022-12-22T09:31:53.377Z,9.00
2022-12-22T09:34:25.263Z,9.00
2022-12-22T09:36:57.032Z,9.00
2022-12-22T09:39:29.553Z,9.00
2022-12-22T09:42:01.535Z,9.00
2022-12-22T09:44:38.002Z,8.90
2022-12-22T09:47:31.791Z,8.90
2022-12-22T09:50:08.865Z,8.90
2022-12-22T09:52:51.799Z,8.90
2022-12-22T09:55:32.410Z,8.80
2022-12-22T09:58:04.391Z,8.80
2022-12-22T10:00:37.156Z,8.80
2022-12-22T10:03:31.429Z,8.80
2022-12-22T10:06:16.785Z,8.90
2022-12-22T10:08:48.546Z,8.90
2022-12-22T10:11:20.709Z,8.80
2022-12-22T10:13:52.403Z,8.90
2022-12-22T10:16:27.830Z,8.80
2022-12-22T10:19:11.975Z,8.80
2022-12-22T10:21:46.861Z,8.80
2022-12-22T10:24:28.207Z,8.80
2022-12-22T10:27:01.585Z,8.90
2022-12-22T10:29:34.377Z,8.90
2022-12-22T10:32:14.448Z,8.90
2022-12-22T10:35:05.024Z,8.90
2022-12-22T10:37:38.936Z,8.90
2022-12-22T10:40:20.447Z,8.90
2022-12-22T10:42:55.164Z,9.00
2022-12-22T10:45:27.867Z,9.00
2022-12-22T10:48:00.116Z,9.00
2022-12-22T10:50:31.916Z,9.00
2022-12-22T10:53:03.723Z,9.00
2022-12-22T10:55:36.116Z,9.00
2022-12-22T10:58:11.072Z,9.00
2022-12-22T11:00:44.893Z,9.00
2022-12-22T11:03:29.632Z,9.00
2022-12-22T11:06:01.587Z,9.10
2022-12-22T11:08:33.329Z,9.10
2022-12-22T11:11:12.866Z,9.10
2022-12-22T11:13:56.402Z,9.20
2022-12-22T11:17:00.460Z,9.30
2022-12-22T11:20:01.919Z,9.40
2022-12-22T11:22:54.249Z,9.40
2022-12-22T11:25:44.555Z,9.50
2022-12-22T11:28:37.344Z,9.50
2022-12-22T11:31:18.178Z,9.50
2022-12-22T11:34:08.968Z,9.60
2022-12-22T11:37:33.114Z,9.70
2022-12-22T11:40:32.842Z,9.80
2022-12-22T11:43:10.916Z,10.00
2022-12-22T11:46:04.323Z,10.10
2022-12-22T11:48:58.274Z,10.10
2022-12-22T11:52:02.548Z,10.20
2022-12-22T11:54:52.077Z,10.30
2022-12-22T11:57:55.626Z,10.30
2022-12-22T12:01:03.716Z,10.30
2022-12-22T12:03:45.270Z,10.40
2022-12-22T12:06:38.905Z,10.50
2022-12-22T12:09:31.945Z,10.50
2022-12-22T12:12:28.572Z,10.40
2022-12-22T12:15:54.034Z,10.30
2022-12-22T12:18:26.814Z,10.30
2022-12-22T12:21:21.249Z,10.30
2022-12-22T12:24:03.239Z,10.30
2022-12-22T12:26:51.433Z,10.40
2022-12-22T12:29:28.910Z,10.50
2022-12-22T12:32:35.171Z,10.60
2022-12-22T12:35:22.196Z,10.70
2022-12-22T12:38:00.848Z,10.90
2022-12-22T12:40:53.131Z,11.00
2022-12-22T12:43:25.186Z,10.90
2022-12-22T12:45:56.887Z,10.70
2022-12-22T12:48:37.389Z,10.60
2022-12-22T12:51:49.407Z,10.40
2022-12-22T12:54:27.005Z,10.20
2022-12-22T12:57:12.135Z,10.20
2022-12-22T12:59:46.595Z,10.20
2022-12-22T13:02:27.886Z,10.20
2022-12-22T13:05:15.824Z,10.20
2022-12-22T13:08:15.391Z,10.20
2022-12-22T13:10:56.147Z,10.20
2022-12-22T13:13:27.956Z,10.20
2022-12-22T13:16:02.662Z,10.20
2022-12-22T13:18:34.572Z,10.20
2022-12-22T13:21:42.595Z,10.20
2022-12-22T13:24:24.175Z,10.20
2022-12-22T13:27:00.707Z,10.10
2022-12-22T13:29:45.578Z,10.10
2022-12-22T13:32:33.318Z,10.10
2022-12-22T13:35:47.735Z,10.10
2022-12-22T13:38:31.439Z,10.10
2022-12-22T13:41:13.025Z,10.20
2022-12-22T13:43:51.167Z,10.10
2022-12-22T13:46:23.058Z,10.20
2022-12-22T13:48:57.158Z,10.10
2022-12-22T13:51:35.600Z,10.10
2022-12-22T13:54:25.731Z,10.10
2022-12-22T13:56:59.832Z,10.10
2022-12-22T13:59:36.989Z,10.10
2022-12-22T14:02:08.911Z,10.20
2022-12-22T14:04:43.229Z,10.20
2022-12-22T14:07:18.428Z,10.20
2022-12-22T14:09:54.824Z,10.20
2022-12-22T14:12:32.388Z,10.20
2022-12-22T14:15:12.068Z,10.20
2022-12-22T14:17:52.166Z,10.10
2022-12-22T14:20:35.744Z,10.10
2022-12-22T14:23:20.024Z,10.10
2022-12-22T14:25:53.629Z,10.10
2022-12-22T14:28:25.346Z,10.00
2022-12-22T14:31:02.532Z,9.90
2022-12-22T14:33:35.217Z,9.90
2022-12-22T14:36:23.696Z,9.80
2022-12-22T14:38:55.546Z,9.70
2022-12-22T14:41:42.022Z,9.60
2022-12-22T14:44:22.560Z,9.60
2022-12-22T14:47:09.604Z,9.50
2022-12-22T14:49:50.293Z,9.50
2022-12-22T14:52:46.477Z,9.50
2022-12-22T14:55:28.383Z,9.40
2022-12-22T14:58:05.501Z,9.40
2022-12-22T15:00:45.738Z,9.30
2022-12-22T15:03:49.448Z,9.30
2022-12-22T15:06:27.096Z,9.20
2022-12-22T15:09:07.344Z,9.20
2022-12-22T15:11:47.797Z,9.20
2022-12-22T15:14:23.134Z,9.20
2022-12-22T15:17:01.728Z,9.10
2022-12-22T15:19:36.183Z,9.10
2022-12-22T15:22:08.491Z,9.20
2022-12-22T15:24:40.406Z,9.20
2022-12-22T15:27:12.550Z,9.20
2022-12-22T15:29:44.241Z,9.20
2022-12-22T15:32:15.967Z,9.10
2022-12-22T15:34:47.779Z,9.10
2022-12-22T15:37:19.536Z,9.10
2022-12-22T15:39:51.225Z,9.00
2022-12-22T15:42:23.097Z,9.00
2022-12-22T15:44:54.814Z,8.90
2022-12-22T15:47:26.583Z,8.90
2022-12-22T15:49:59.088Z,8.90
2022-12-22T15:52:31.991Z,8.90
2022-12-22T15:55:03.928Z,8.90
2022-12-22T15:57:35.610Z,8.90
2022-12-22T16:00:10.043Z,8.90
2022-12-22T16:02:42.022Z,8.90
2022-12-22T16:05:14.829Z,9.00
2022-12-22T16:07:46.547Z,9.00
2022-12-22T16:10:25.577Z,9.00
2022-12-22T16:13:00.617Z,9.00
2022-12-22T16:15:34.514Z,8.90
2022-12-22T16:18:06.756Z,9.00
2022-12-22T16:20:41.559Z,8.90
2022-12-22T16:23:16.975Z,8.90
2022-12-22T16:25:49.145Z,8.90
2022-12-22T16:28:23.539Z,8.90
2022-12-22T16:30:55.357Z,8.90
2022-12-22T16:33:27.262Z,8.90
2022-12-22T16:35:59.048Z,8.80
2022-12-22T16:38:30.770Z,8.80
2022-12-22T16:41:03.541Z,8.80
2022-12-22T16:46:28.526Z,8.80
2022-12-22T16:49:01.543Z,8.80
2022-12-22T16:51:34.628Z,8.80
2022-12-22T16:54:06.486Z,8.80
2022-12-22T16:56:38.896Z,8.80
2022-12-22T16:59:11.011Z,8.80
2022-12-22T17:01:52.146Z,8.80
2022-12-22T17:04:33.683Z,8.90
2022-12-22T17:07:06.937Z,8.90
2022-12-22T17:10:01.938Z,8.90
2022-12-22T17:12:34.737Z,8.90
2022-12-22T17:15:07.089Z,8.90
2022-12-22T17:17:42.304Z,8.90
2022-12-22T17:20:19.948Z,8.90
2022-12-22T17:22:59.653Z,8.90
2022-12-22T17:25:31.633Z,8.90
2022-12-22T17:28:03.524Z,8.80
2022-12-22T17:30:35.289Z,8.70
2022-12-22T17:33:16.515Z,8.60
2022-12-22T17:35:48.421Z,8.40
2022-12-22T17:38:21.716Z,8.30
2022-12-22T17:40:54.206Z,8.30
2022-12-22T17:43:26.056Z,8.20
2022-12-22T17:45:57.774Z,8.20
2022-12-22T17:48:29.511Z,8.20
2022-12-22T17:51:01.266Z,8.10
2022-12-22T17:53:37.487Z,8.10
2022-12-22T17:56:16.585Z,8.10
2022-12-22T17:58:48.712Z,8.10
2022-12-22T18:01:31.708Z,8.10
2022-12-22T18:04:03.760Z,8.10
2022-12-22T18:06:37.814Z,8.30
2022-12-22T18:09:20.760Z,8.30
2022-12-22T18:11:53.803Z,8.20
2022-12-22T18:14:25.600Z,8.30
2022-12-22T18:16:57.298Z,8.20
2022-12-22T18:19:29.135Z,8.20
2022-12-22T18:22:00.992Z,8.20
2022-12-22T18:24:32.766Z,8.20
2022-12-22T18:27:04.553Z,8.10
2022-12-22T18:29:36.334Z,8.00
2022-12-22T18:32:09.292Z,7.90
2022-12-22T18:34:41.207Z,7.90
2022-12-22T18:37:16.407Z,7.90
2022-12-22T18:39:48.174Z,7.90
2022-12-22T18:42:22.686Z,7.80
2022-12-22T18:44:54.459Z,7.80
2022-12-22T18:47:26.215Z,7.80
2022-12-22T18:50:02.776Z,7.90
2022-12-22T18:52:34.621Z,7.90
2022-12-22T18:55:10.044Z,7.80
2022-12-22T18:57:45.562Z,7.80
2022-12-22T19:00:20.451Z,7.90
2022-12-22T19:02:54.841Z,8.10
2022-12-22T19:05:32.478Z,8.10
2022-12-22T19:08:04.313Z,8.20
2022-12-22T19:10:41.105Z,8.10
2022-12-22T19:13:21.282Z,8.20
2022-12-22T19:15:53.526Z,8.10
2022-12-22T19:18:27.528Z,8.10
2022-12-22T19:20:59.619Z,8.10
2022-12-22T19:23:32.177Z,8.20
2022-12-22T19:26:08.734Z,8.20
2022-12-22T19:28:43.842Z,8.20
2022-12-22T19:31:25.435Z,8.30
2022-12-22T19:33:59.593Z,8.30
2022-12-22T19:36:33.219Z,8.50
2022-12-22T19:39:06.172Z,8.60
2022-12-22T19:41:50.544Z,8.70
2022-12-22T19:44:28.367Z,8.70
2022-12-22T19:47:02.344Z,8.70
2022-12-22T19:49:34.035Z,8.60
2022-12-22T19:52:05.890Z,8.70
2022-12-22T19:54:38.372Z,8.70
2022-12-22T19:57:18.127Z,8.70
2022-12-22T19:59:52.247Z,8.60
2022-12-22T20:02:32.928Z,8.70
2022-12-22T20:05:13.324Z,8.70
2022-12-22T20:07:46.928Z,8.70
2022-12-22T20:10:19.970Z,8.70
2022-12-22T20:12:54.772Z,8.60
2022-12-22T20:15:28.259Z,8.60
2022-12-22T20:18:00.641Z,8.70
2022-12-22T20:20:37.280Z,8.60
2022-12-22T20:23:12.052Z,8.60
2022-12-22T20:26:05.435Z,8.60
2022-12-22T20:28:39.644Z,8.60
2022-12-22T20:31:15.186Z,8.60
2022-12-22T20:33:47.143Z,8.60
2022-12-22T20:36:23.385Z,8.60
2022-12-22T20:38:57.217Z,8.50
2022-12-22T20:41:29.098Z,8.50
2022-12-22T20:44:00.918Z,8.50
2022-12-22T20:46:33.080Z,8.50
2022-12-22T20:49:10.665Z,8.60
2022-12-22T20:51:42.489Z,8.60
2022-12-22T20:54:15.085Z,8.60
2022-12-22T20:56:47.180Z,8.70
2022-12-22T20:59:23.470Z,8.70
2022-12-22T21:01:55.283Z,8.70
2022-12-22T21:04:27.110Z,8.80
2022-12-22T21:06:58.913Z,8.80
2022-12-22T21:09:30.686Z,8.80
2022-12-22T21:12:02.360Z,8.80
2022-12-22T21:14:34.163Z,8.90
2022-12-22T21:17:15.219Z,8.80
2022-12-22T21:19:47.124Z,8.80
2022-12-22T21:22:18.840Z,8.80
2022-12-22T21:24:50.538Z,8.70
2022-12-22T21:27:22.471Z,8.70
2022-12-22T21:29:54.312Z,8.60
2022-12-22T21:32:26.065Z,8.60
2022-12-22T21:35:01.255Z,8.50
2022-12-22T21:37:37.804Z,8.50
2022-12-22T21:40:25.010Z,8.50
2022-12-22T21:42:58.036Z,8.50
2022-12-22T21:45:31.625Z,8.50
2022-12-22T21:48:03.583Z,8.50
2022-12-22T21:50:35.632Z,8.50
2022-12-22T21:53:08.405Z,8.50
2022-12-22T21:55:40.884Z,8.50
2022-12-22T21:58:15.014Z,8.50
2022-12-22T22:00:49.216Z,8.40
2022-12-22T22:03:20.920Z,8.40
2022-12-22T22:05:52.724Z,8.40
2022-12-22T22:08:25.140Z,8.40
2022-12-22T22:11:00.194Z,8.40
2022-12-22T22:13:31.884Z,8.40
2022-12-22T22:16:03.760Z,8.40
2022-12-22T22:18:35.551Z,8.40
2022-12-22T22:21:08.578Z,8.40
2022-12-22T22:23:40.805Z,8.50
2022-12-22T22:26:12.697Z,8.40
2022-12-22T22:28:44.519Z,8.40
2022-12-22T22:31:16.395Z,8.40
2022-12-22T22:33:51.331Z,8.50
2022-12-22T22:36:23.198Z,8.40
2022-12-22T22:38:54.922Z,8.40
2022-12-22T22:41:28.552Z,8.40
2022-12-22T22:44:00.212Z,8.40
2022-12-22T22:46:32.147Z,8.40
2022-12-22T22:49:03.988Z,8.40
2022-12-22T22:51:35.746Z,8.40
2022-12-22T22:54:09.260Z,8.40
2022-12-22T22:56:41.088Z,8.40
2022-12-22T22:59:13.276Z,8.40
2022-12-22T23:01:45.171Z,8.40
2022-12-22T23:04:17.169Z,8.40
2022-12-22T23:06:48.961Z,8.40
2022-12-22T23:09:20.771Z,8.40
2022-12-22T23:11:53.523Z,8.40
2022-12-22T23:14:26.006Z,8.40
2022-12-22T23:16:57.805Z,8.40
2022-12-22T23:19:29.619Z,8.40
2022-12-22T23:22:01.536Z,8.40
2022-12-22T23:24:33.331Z,8.30
2022-12-22T23:27:05.125Z,8.30
2022-12-22T23:29:37.233Z,8.30
2022-12-22T23:32:09.010Z,8.30
2022-12-22T23:34:40.679Z,8.30
2022-12-22T23:37:18.976Z,8.30
2022-12-22T23:39:51.440Z,8.30
2022-12-22T23:42:23.194Z,8.30
2022-12-22T23:44:55.045Z,8.30
2022-12-22T23:47:26.853Z,8.30
2022-12-22T23:49:58.595Z,8.30
2022-12-22T23:52:30.329Z,8.30
2022-12-22T23:55:02.012Z,8.30
2022-12-22T23:57:33.789Z,8.30
